createdAt,value
2022-10-07T00:00:57.114Z,9.10
2022-10-07T00:03:26.366Z,9.10
2022-10-07T00:06:07.210Z,9.10
2022-10-07T00:08:39.459Z,9.10
2022-10-07T00:11:16.026Z,9.00
2022-10-07T00:13:45.340Z,8.90
2022-10-07T00:16:15.310Z,9.00
2022-10-07T00:18:42.463Z,8.90
2022-10-07T00:21:15.801Z,8.80
2022-10-07T00:23:44.471Z,8.80
2022-10-07T00:26:16.938Z,8.80
2022-10-07T00:28:44.457Z,8.70
2022-10-07T00:31:18.731Z,8.60
2022-10-07T00:33:46.625Z,8.60
2022-10-07T00:36:18.967Z,8.60
2022-10-07T00:39:06.489Z,8.60
2022-10-07T00:41:36.946Z,8.60
2022-10-07T00:44:32.417Z,8.50
2022-10-07T00:47:03.769Z,8.50
2022-10-07T00:49:37.087Z,8.40
2022-10-07T00:52:04.744Z,8.40
2022-10-07T00:54:31.653Z,8.40
2022-10-07T00:56:59.268Z,8.40
2022-10-07T00:59:27.281Z,8.40
2022-10-07T01:01:54.210Z,8.40
2022-10-07T01:04:21.106Z,8.40
2022-10-07T01:06:48.116Z,8.50
2022-10-07T01:09:15.522Z,8.50
2022-10-07T01:11:59.363Z,8.60
2022-10-07T01:14:50.096Z,8.50
2022-10-07T01:17:29.614Z,8.50
2022-10-07T01:20:00.298Z,8.50
2022-10-07T01:22:38.095Z,8.50
2022-10-07T01:25:16.861Z,8.50
2022-10-07T01:27:49.626Z,8.50
2022-10-07T01:30:18.249Z,8.50
2022-10-07T01:33:04.841Z,8.40
2022-10-07T01:35:35.677Z,8.40
2022-10-07T01:38:09.559Z,8.30
2022-10-07T01:40:56.470Z,8.30
2022-10-07T01:43:24.088Z,8.30
2022-10-07T01:45:54.715Z,8.30
2022-10-07T01:48:21.704Z,8.30
2022-10-07T01:50:51.155Z,8.30
2022-10-07T01:53:34.781Z,8.30
2022-10-07T01:56:07.617Z,8.40
2022-10-07T01:58:57.829Z,8.40
2022-10-07T02:01:30.462Z,8.40
2022-10-07T02:04:12.932Z,8.40
2022-10-07T02:06:50.134Z,8.40
2022-10-07T02:09:29.573Z,8.50
2022-10-07T02:12:23.287Z,8.40
2022-10-07T02:14:59.205Z,8.40
2022-10-07T02:17:29.920Z,8.40
2022-10-07T02:19:57.600Z,8.40
2022-10-07T02:22:28.287Z,8.40
2022-10-07T02:24:59.960Z,8.40
2022-10-07T02:27:34.969Z,8.40
2022-10-07T02:30:13.069Z,8.40
2022-10-07T02:32:44.877Z,8.40
2022-10-07T02:35:23.230Z,8.40
2022-10-07T02:37:53.377Z,8.40
2022-10-07T02:40:22.328Z,8.50
2022-10-07T02:43:17.432Z,8.50
2022-10-07T02:46:02.163Z,8.60
2022-10-07T02:48:37.599Z,8.50
2022-10-07T02:51:09.449Z,8.40
2022-10-07T02:53:37.796Z,8.50
2022-10-07T02:56:05.440Z,8.40
2022-10-07T02:58:34.220Z,8.40
2022-10-07T03:01:02.470Z,8.40
2022-10-07T03:03:30.478Z,8.50
2022-10-07T03:06:05.574Z,8.40
2022-10-07T03:08:33.665Z,8.40
2022-10-07T03:11:01.941Z,8.30
2022-10-07T03:13:31.182Z,8.30
2022-10-07T03:16:04.401Z,8.40
2022-10-07T03:18:32.344Z,8.40
2022-10-07T03:21:18.678Z,8.30
2022-10-07T03:23:51.111Z,8.30
2022-10-07T03:26:19.200Z,8.40
2022-10-07T03:28:47.907Z,8.40
2022-10-07T03:31:15.672Z,8.40
2022-10-07T03:33:51.072Z,8.30
2022-10-07T03:36:19.481Z,8.30
2022-10-07T03:38:47.662Z,8.30
2022-10-07T03:41:15.790Z,8.20
2022-10-07T03:43:42.876Z,8.20
2022-10-07T03:46:11.607Z,8.30
2022-10-07T03:48:39.774Z,8.30
2022-10-07T03:51:07.589Z,8.30
2022-10-07T03:53:39.368Z,8.30
2022-10-07T03:56:07.474Z,8.20
2022-10-07T03:58:35.836Z,8.30
2022-10-07T04:01:10.693Z,8.30
2022-10-07T04:03:42.835Z,8.30
2022-10-07T04:06:10.414Z,8.20
2022-10-07T04:08:38.993Z,8.30
2022-10-07T04:11:07.268Z,8.20
2022-10-07T04:13:37.032Z,8.20
2022-10-07T04:16:10.248Z,8.10
2022-10-07T04:18:37.964Z,8.20
2022-10-07T04:21:05.659Z,8.10
2022-10-07T04:23:35.258Z,8.10
2022-10-07T04:26:02.482Z,8.20
2022-10-07T04:28:30.434Z,8.30
2022-10-07T04:31:08.939Z,8.20
2022-10-07T04:33:41.608Z,8.20
2022-10-07T04:36:12.999Z,8.20
2022-10-07T04:38:51.378Z,8.20
2022-10-07T04:41:22.672Z,8.10
2022-10-07T04:43:55.294Z,8.20
2022-10-07T04:46:25.163Z,8.10
2022-10-07T04:48:59.651Z,8.10
2022-10-07T04:51:28.069Z,8.10
2022-10-07T04:53:58.153Z,8.00
2022-10-07T04:56:31.470Z,8.00
2022-10-07T04:59:00.411Z,8.10
2022-10-07T05:01:28.435Z,8.10
2022-10-07T05:03:55.546Z,8.20
2022-10-07T05:06:22.853Z,8.20
2022-10-07T05:08:50.034Z,8.20
2022-10-07T05:11:17.173Z,8.10
2022-10-07T05:13:52.910Z,8.10
2022-10-07T05:16:21.909Z,8.00
2022-10-07T05:18:48.901Z,8.00
2022-10-07T05:21:16.623Z,8.00
2022-10-07T05:23:46.196Z,8.00
2022-10-07T05:26:17.374Z,8.00
2022-10-07T05:28:49.482Z,8.00
2022-10-07T05:31:22.076Z,8.10
2022-10-07T05:33:53.535Z,8.20
2022-10-07T05:36:23.172Z,8.30
2022-10-07T05:38:54.646Z,8.40
2022-10-07T05:41:22.365Z,8.40
2022-10-07T05:43:49.472Z,8.40
2022-10-07T05:46:23.174Z,8.50
2022-10-07T05:48:55.004Z,8.40
2022-10-07T05:51:26.673Z,8.40
2022-10-07T05:53:56.808Z,8.40
2022-10-07T05:56:29.167Z,8.40
2022-10-07T05:58:57.384Z,8.50
2022-10-07T06:01:29.534Z,8.50
2022-10-07T06:03:59.552Z,8.50
2022-10-07T06:06:30.227Z,8.50
2022-10-07T06:09:20.201Z,8.50
2022-10-07T06:12:07.390Z,8.50
2022-10-07T06:14:36.468Z,8.40
2022-10-07T06:17:05.158Z,8.40
2022-10-07T06:19:32.459Z,8.40
2022-10-07T06:22:02.635Z,8.40
2022-10-07T06:24:30.080Z,8.50
2022-10-07T06:26:57.271Z,8.50
2022-10-07T06:29:24.642Z,8.50
2022-10-07T06:31:51.657Z,8.60
2022-10-07T06:34:19.335Z,8.60
2022-10-07T06:36:46.721Z,8.60
2022-10-07T06:39:17.783Z,8.70
2022-10-07T06:41:47.264Z,8.70
2022-10-07T06:44:40.317Z,8.70
2022-10-07T06:47:11.922Z,8.80
2022-10-07T06:49:42.694Z,8.80
2022-10-07T06:52:09.665Z,8.90
2022-10-07T06:54:37.222Z,9.00
2022-10-07T06:57:20.409Z,9.10
2022-10-07T06:59:51.673Z,9.20
2022-10-07T07:02:19.669Z,9.30
2022-10-07T07:04:48.176Z,9.40
2022-10-07T07:07:15.137Z,9.50
2022-10-07T07:09:42.064Z,9.60
2022-10-07T07:12:10.928Z,9.60
2022-10-07T07:14:41.822Z,9.70
2022-10-07T07:17:14.793Z,9.70
2022-10-07T07:19:41.724Z,9.70
2022-10-07T07:22:09.308Z,9.70
2022-10-07T07:24:38.820Z,9.80
2022-10-07T07:27:06.294Z,9.80
2022-10-07T07:29:33.243Z,9.90
2022-10-07T07:32:04.352Z,9.90
2022-10-07T07:34:36.385Z,10.00
2022-10-07T07:37:04.242Z,10.10
2022-10-07T07:39:37.653Z,10.10
2022-10-07T07:42:09.348Z,10.20
2022-10-07T07:44:38.818Z,10.20
2022-10-07T07:47:09.142Z,10.30
2022-10-07T07:49:36.865Z,10.40
2022-10-07T07:52:05.454Z,10.50
2022-10-07T07:54:39.746Z,10.60
2022-10-07T07:57:06.903Z,10.80
2022-10-07T07:59:37.384Z,10.80
2022-10-07T08:02:06.403Z,10.90
2022-10-07T08:04:36.044Z,10.90
2022-10-07T08:07:03.742Z,11.00
2022-10-07T08:09:30.695Z,11.10
2022-10-07T08:11:58.118Z,11.20
2022-10-07T08:14:25.638Z,11.30
2022-10-07T08:16:56.277Z,11.40
2022-10-07T08:19:24.081Z,11.50
2022-10-07T08:21:52.602Z,11.60
2022-10-07T08:24:25.819Z,11.70
2022-10-07T08:26:56.141Z,11.80
2022-10-07T08:29:24.036Z,11.80
2022-10-07T08:31:51.593Z,11.90
2022-10-07T08:34:18.809Z,12.00
2022-10-07T08:36:47.570Z,12.00
2022-10-07T08:39:15.429Z,12.10
2022-10-07T08:41:45.885Z,12.10
2022-10-07T08:44:32.618Z,12.20
2022-10-07T08:47:21.000Z,12.20
2022-10-07T08:50:19.469Z,12.30
2022-10-07T08:53:03.206Z,12.30
2022-10-07T08:55:54.355Z,12.40
2022-10-07T08:58:47.975Z,12.60
2022-10-07T09:01:42.066Z,12.70
2022-10-07T09:04:22.741Z,12.80
2022-10-07T09:07:02.491Z,12.80
2022-10-07T09:09:38.514Z,13.00
2022-10-07T09:12:11.012Z,13.00
2022-10-07T09:14:44.331Z,13.10
2022-10-07T09:17:35.839Z,13.30
2022-10-07T09:20:11.423Z,13.40
2022-10-07T09:22:39.668Z,13.60
2022-10-07T09:25:12.838Z,13.70
2022-10-07T09:27:39.978Z,13.80
2022-10-07T09:30:07.391Z,13.90
2022-10-07T09:32:38.244Z,13.90
2022-10-07T09:35:06.162Z,13.90
2022-10-07T09:37:33.919Z,14.20
2022-10-07T09:40:22.752Z,14.60
2022-10-07T09:42:50.000Z,15.00
2022-10-07T09:45:26.123Z,15.20
2022-10-07T09:47:56.728Z,15.50
2022-10-07T09:50:38.902Z,15.70
2022-10-07T09:53:20.809Z,15.80
2022-10-07T09:55:48.572Z,16.00
2022-10-07T09:58:35.753Z,16.10
2022-10-07T10:01:10.009Z,16.20
2022-10-07T10:03:38.006Z,16.30
2022-10-07T10:06:08.654Z,16.30
2022-10-07T10:08:42.160Z,16.00
2022-10-07T10:11:25.785Z,16.00
2022-10-07T10:13:53.022Z,16.30
2022-10-07T10:16:26.079Z,16.50
2022-10-07T10:19:07.590Z,16.70
2022-10-07T10:21:37.837Z,16.80
2022-10-07T10:24:09.888Z,16.20
2022-10-07T10:26:42.853Z,16.20
2022-10-07T10:29:28.070Z,16.10
2022-10-07T10:31:54.933Z,16.20
2022-10-07T10:34:41.129Z,16.30
2022-10-07T10:37:35.765Z,16.30
2022-10-07T10:40:35.312Z,16.50
2022-10-07T10:43:25.728Z,16.80
2022-10-07T10:46:16.519Z,17.10
2022-10-07T10:49:10.720Z,17.10
2022-10-07T10:52:13.261Z,17.40
2022-10-07T10:54:50.897Z,17.50
2022-10-07T10:57:23.341Z,17.40
2022-10-07T11:00:13.462Z,16.90
2022-10-07T11:02:43.381Z,17.30
2022-10-07T11:05:25.706Z,17.30
2022-10-07T11:08:27.503Z,17.40
2022-10-07T11:11:12.172Z,17.80
2022-10-07T11:14:03.654Z,18.00
2022-10-07T11:16:58.556Z,17.90
2022-10-07T11:19:48.764Z,17.70
2022-10-07T11:22:23.602Z,17.50
2022-10-07T11:24:57.015Z,17.40
2022-10-07T11:27:28.365Z,17.20
2022-10-07T11:30:04.269Z,17.60
2022-10-07T11:32:55.907Z,17.90
2022-10-07T11:35:32.970Z,18.00
2022-10-07T11:38:05.726Z,18.20
2022-10-07T11:40:40.556Z,17.80
2022-10-07T11:43:16.597Z,18.00
2022-10-07T11:45:52.112Z,18.30
2022-10-07T11:48:25.638Z,18.50
2022-10-07T11:51:00.179Z,18.40
2022-10-07T11:53:28.724Z,18.40
2022-10-07T11:56:21.689Z,18.20
2022-10-07T11:59:01.157Z,18.40
2022-10-07T12:01:40.750Z,18.60
2022-10-07T12:04:31.212Z,18.90
2022-10-07T12:07:35.126Z,18.80
2022-10-07T12:10:01.997Z,19.00
2022-10-07T12:12:44.891Z,18.60
2022-10-07T12:15:26.804Z,18.70
2022-10-07T12:18:07.083Z,18.40
2022-10-07T12:20:57.713Z,18.40
2022-10-07T12:23:28.250Z,19.00
2022-10-07T12:26:30.671Z,18.70
2022-10-07T12:28:58.004Z,18.70
2022-10-07T12:31:24.885Z,18.80
2022-10-07T12:34:09.215Z,18.50
2022-10-07T12:36:38.593Z,18.60
2022-10-07T12:39:09.596Z,18.40
2022-10-07T12:41:40.072Z,18.30
2022-10-07T12:44:52.652Z,18.30
2022-10-07T12:47:29.745Z,18.40
2022-10-07T12:50:04.758Z,18.80
2022-10-07T12:52:38.048Z,19.10
2022-10-07T12:55:14.743Z,19.20
2022-10-07T12:57:47.964Z,19.00
2022-10-07T13:00:24.599Z,19.10
2022-10-07T13:03:25.168Z,19.00
2022-10-07T13:06:03.988Z,19.30
2022-10-07T13:08:46.140Z,19.00
2022-10-07T13:11:29.613Z,19.00
2022-10-07T13:14:09.373Z,19.40
2022-10-07T13:17:08.507Z,19.40
2022-10-07T13:20:20.565Z,19.50
2022-10-07T13:22:49.063Z,19.50
2022-10-07T13:25:20.080Z,19.40
2022-10-07T13:27:55.182Z,19.30
2022-10-07T13:30:52.210Z,19.40
2022-10-07T13:33:21.871Z,19.50
2022-10-07T13:35:50.066Z,19.30
2022-10-07T13:38:28.392Z,19.30
2022-10-07T13:41:14.239Z,19.40
2022-10-07T13:43:43.949Z,19.40
2022-10-07T13:46:11.767Z,19.30
2022-10-07T13:48:45.601Z,19.20
2022-10-07T13:51:35.380Z,19.30
2022-10-07T13:54:05.660Z,19.10
2022-10-07T13:56:42.731Z,19.00
2022-10-07T13:59:20.785Z,19.20
2022-10-07T14:01:53.801Z,19.20
2022-10-07T14:04:29.154Z,19.40
2022-10-07T14:07:02.201Z,19.00
2022-10-07T14:09:31.855Z,19.20
2022-10-07T14:12:09.192Z,18.90
2022-10-07T14:14:45.918Z,19.10
2022-10-07T14:17:40.951Z,18.90
2022-10-07T14:20:26.661Z,19.00
2022-10-07T14:22:56.644Z,19.00
2022-10-07T14:25:30.008Z,18.80
2022-10-07T14:28:14.963Z,19.00
2022-10-07T14:31:01.250Z,19.10
2022-10-07T14:34:07.977Z,19.40
2022-10-07T14:36:36.157Z,19.50
2022-10-07T14:39:23.599Z,19.50
2022-10-07T14:41:51.202Z,19.70
2022-10-07T14:44:18.388Z,19.50
2022-10-07T14:46:45.273Z,19.30
2022-10-07T14:49:12.423Z,19.30
2022-10-07T14:51:41.158Z,19.60
2022-10-07T14:54:08.222Z,19.80
2022-10-07T14:56:36.817Z,19.60
2022-10-07T14:59:03.739Z,19.40
2022-10-07T15:01:31.023Z,19.40
2022-10-07T15:03:58.525Z,19.00
2022-10-07T15:06:25.810Z,19.00
2022-10-07T15:08:52.700Z,19.00
2022-10-07T15:11:21.319Z,19.20
2022-10-07T15:13:50.111Z,19.00
2022-10-07T15:16:21.261Z,18.90
2022-10-07T15:18:52.170Z,18.80
2022-10-07T15:21:21.003Z,18.70
2022-10-07T15:23:52.652Z,18.60
2022-10-07T15:26:23.675Z,18.60
2022-10-07T15:28:55.272Z,18.50
2022-10-07T15:31:24.872Z,18.50
2022-10-07T15:33:52.217Z,18.20
2022-10-07T15:36:19.098Z,18.10
2022-10-07T15:38:46.033Z,17.90
2022-10-07T15:41:28.208Z,17.70
2022-10-07T15:43:58.123Z,17.70
2022-10-07T15:46:25.422Z,17.40
2022-10-07T15:48:56.429Z,17.30
2022-10-07T15:51:25.463Z,17.20
2022-10-07T15:53:53.710Z,17.10
2022-10-07T15:56:20.904Z,16.90
2022-10-07T15:58:47.944Z,16.70
2022-10-07T16:01:15.505Z,16.50
2022-10-07T16:03:44.962Z,16.50
2022-10-07T16:06:23.987Z,16.40
2022-10-07T16:08:54.717Z,16.30
2022-10-07T16:11:22.318Z,16.20
2022-10-07T16:13:49.455Z,16.00
2022-10-07T16:16:20.107Z,15.80
2022-10-07T16:18:49.051Z,15.70
2022-10-07T16:21:21.650Z,15.60
2022-10-07T16:23:50.681Z,15.40
2022-10-07T16:26:22.918Z,15.20
2022-10-07T16:29:10.498Z,15.10
2022-10-07T16:31:42.610Z,15.00
2022-10-07T16:34:15.744Z,15.00
2022-10-07T16:36:45.842Z,14.80
2022-10-07T16:39:13.480Z,14.70
2022-10-07T16:41:44.089Z,14.60
2022-10-07T16:44:11.358Z,14.40
2022-10-07T16:46:38.820Z,14.30
2022-10-07T16:49:07.777Z,14.20
2022-10-07T16:51:37.040Z,14.00
2022-10-07T16:54:12.978Z,13.70
2022-10-07T16:56:42.179Z,13.50
2022-10-07T16:59:10.596Z,13.20
2022-10-07T17:01:39.306Z,13.00
2022-10-07T17:04:06.988Z,13.00
2022-10-07T17:06:34.535Z,12.70
2022-10-07T17:09:04.396Z,12.40
2022-10-07T17:11:36.271Z,12.20
2022-10-07T17:14:12.254Z,12.00
2022-10-07T17:16:45.524Z,11.80
2022-10-07T17:19:14.599Z,11.60
2022-10-07T17:21:42.310Z,11.50
2022-10-07T17:24:10.381Z,11.40
2022-10-07T17:26:37.924Z,11.20
2022-10-07T17:29:07.808Z,11.10
2022-10-07T17:31:37.090Z,11.10
2022-10-07T17:34:03.988Z,10.90
2022-10-07T17:36:33.949Z,10.80
2022-10-07T17:39:00.933Z,10.80
2022-10-07T17:41:30.813Z,10.90
2022-10-07T17:43:59.897Z,10.80
2022-10-07T17:46:28.923Z,10.70
2022-10-07T17:48:58.080Z,10.60
2022-10-07T17:51:28.124Z,10.50
2022-10-07T17:53:56.653Z,10.50
2022-10-07T17:56:23.781Z,10.60
2022-10-07T17:58:51.754Z,10.50
2022-10-07T18:01:28.047Z,10.40
2022-10-07T18:04:00.025Z,10.20
2022-10-07T18:06:29.261Z,10.10
2022-10-07T18:08:59.020Z,10.10
2022-10-07T18:11:46.352Z,10.00
2022-10-07T18:14:32.188Z,10.00
2022-10-07T18:16:59.525Z,9.90
2022-10-07T18:19:27.382Z,9.90
2022-10-07T18:21:56.360Z,9.90
2022-10-07T18:24:28.956Z,10.00
2022-10-07T18:26:58.893Z,10.00
2022-10-07T18:29:27.416Z,10.10
2022-10-07T18:31:54.900Z,10.20
2022-10-07T18:34:22.819Z,10.30
2022-10-07T18:36:52.680Z,10.30
2022-10-07T18:39:23.042Z,10.20
2022-10-07T18:41:49.911Z,10.20
2022-10-07T18:44:16.809Z,10.10
2022-10-07T18:46:43.771Z,10.00
2022-10-07T18:49:13.718Z,10.00
2022-10-07T18:51:41.244Z,9.90
2022-10-07T18:54:08.186Z,9.80
2022-10-07T18:56:39.979Z,9.70
2022-10-07T18:59:08.715Z,9.70
2022-10-07T19:01:37.370Z,9.60
2022-10-07T19:04:05.811Z,9.60
2022-10-07T19:06:35.697Z,9.70
2022-10-07T19:09:06.019Z,9.80
2022-10-07T19:11:33.484Z,9.90
2022-10-07T19:14:01.559Z,9.80
2022-10-07T19:16:30.688Z,9.80
2022-10-07T19:19:01.530Z,9.70
2022-10-07T19:21:29.659Z,9.60
2022-10-07T19:23:58.724Z,9.60
2022-10-07T19:26:31.089Z,9.50
2022-10-07T19:28:58.315Z,9.40
2022-10-07T19:31:32.662Z,9.20
2022-10-07T19:34:02.338Z,9.10
2022-10-07T19:36:31.174Z,9.00
2022-10-07T19:38:58.591Z,8.90
2022-10-07T19:41:29.319Z,8.90
2022-10-07T19:43:56.879Z,8.80
2022-10-07T19:46:25.682Z,8.80
2022-10-07T19:48:55.421Z,8.80
2022-10-07T19:51:23.447Z,8.70
2022-10-07T19:53:50.883Z,8.80
2022-10-07T19:56:29.565Z,8.90
2022-10-07T19:58:59.062Z,9.30
2022-10-07T20:01:28.264Z,9.60
2022-10-07T20:04:00.958Z,9.90
2022-10-07T20:06:28.546Z,10.10
2022-10-07T20:08:56.142Z,10.30
2022-10-07T20:11:23.824Z,10.50
2022-10-07T20:13:51.847Z,10.60
2022-10-07T20:16:22.555Z,10.70
2022-10-07T20:18:51.224Z,10.70
2022-10-07T20:21:22.174Z,10.70
2022-10-07T20:23:49.954Z,10.70
2022-10-07T20:26:23.064Z,10.70
2022-10-07T20:28:52.381Z,10.80
2022-10-07T20:31:21.703Z,10.80
2022-10-07T20:33:51.792Z,10.80
2022-10-07T20:36:21.934Z,10.80
2022-10-07T20:39:15.857Z,10.70
2022-10-07T20:42:07.188Z,10.60
2022-10-07T20:44:36.582Z,10.50
2022-10-07T20:47:08.392Z,10.50
2022-10-07T20:49:38.491Z,10.50
2022-10-07T20:52:07.769Z,10.40
2022-10-07T20:54:34.726Z,10.30
2022-10-07T20:57:01.666Z,10.30
2022-10-07T20:59:30.819Z,10.30
2022-10-07T21:01:58.567Z,10.30
2022-10-07T21:04:27.148Z,10.30
2022-10-07T21:06:57.077Z,10.40
2022-10-07T21:09:25.107Z,10.40
2022-10-07T21:11:53.248Z,10.40
2022-10-07T21:14:20.605Z,10.40
2022-10-07T21:16:48.085Z,10.40
2022-10-07T21:19:15.703Z,10.40
2022-10-07T21:21:42.717Z,10.30
2022-10-07T21:24:09.668Z,10.40
2022-10-07T21:26:37.194Z,10.40
2022-10-07T21:29:07.025Z,10.40
2022-10-07T21:31:35.591Z,10.40
2022-10-07T21:34:07.774Z,10.30
2022-10-07T21:36:40.544Z,10.40
2022-10-07T21:39:07.962Z,10.40
2022-10-07T21:41:37.494Z,10.40
2022-10-07T21:44:06.767Z,10.40
2022-10-07T21:46:36.646Z,10.50
2022-10-07T21:49:06.108Z,10.40
2022-10-07T21:51:34.384Z,10.40
2022-10-07T21:54:02.061Z,10.50
2022-10-07T21:56:31.272Z,10.50
2022-10-07T21:59:01.446Z,10.50
2022-10-07T22:01:28.928Z,10.40
2022-10-07T22:04:05.024Z,10.40
2022-10-07T22:06:50.793Z,10.40
2022-10-07T22:09:21.037Z,10.50
2022-10-07T22:11:48.668Z,10.40
2022-10-07T22:14:15.587Z,10.40
2022-10-07T22:16:42.667Z,10.30
2022-10-07T22:19:11.492Z,10.20
2022-10-07T22:21:40.315Z,10.20
2022-10-07T22:24:08.832Z,10.30
2022-10-07T22:26:39.073Z,10.30
2022-10-07T22:29:08.646Z,10.30
2022-10-07T22:31:36.208Z,10.40
2022-10-07T22:34:03.249Z,10.50
2022-10-07T22:36:30.207Z,10.50
2022-10-07T22:38:59.210Z,10.60
2022-10-07T22:41:27.137Z,10.60
2022-10-07T22:43:54.381Z,10.60
2022-10-07T22:46:27.272Z,10.60
2022-10-07T22:48:58.193Z,10.50
2022-10-07T22:51:28.658Z,10.60
2022-10-07T22:53:56.876Z,10.60
2022-10-07T22:56:25.869Z,10.60
2022-10-07T22:58:58.857Z,10.50
2022-10-07T23:01:31.300Z,10.60
2022-10-07T23:04:03.314Z,10.60
2022-10-07T23:06:35.068Z,10.50
2022-10-07T23:09:03.787Z,10.40
2022-10-07T23:11:31.601Z,10.40
2022-10-07T23:13:58.603Z,10.40
2022-10-07T23:16:29.377Z,10.40
2022-10-07T23:18:56.907Z,10.40
2022-10-07T23:21:25.989Z,10.30
2022-10-07T23:24:06.031Z,10.20
2022-10-07T23:26:34.384Z,10.20
2022-10-07T23:29:01.546Z,10.20
2022-10-07T23:31:31.810Z,10.20
2022-10-07T23:34:00.415Z,10.10
2022-10-07T23:36:27.830Z,10.00
2022-10-07T23:38:55.182Z,10.00
2022-10-07T23:41:25.755Z,10.00
2022-10-07T23:43:55.955Z,10.10
2022-10-07T23:46:24.882Z,10.00
2022-10-07T23:48:52.529Z,10.00
2022-10-07T23:51:22.306Z,9.90
2022-10-07T23:53:49.691Z,9.90
2022-10-07T23:56:18.662Z,9.90
2022-10-07T23:58:45.758Z,9.90
